Strona główna
METAR-TAF:

METAR-TAF

Lotnisko :

Port lotniczy Wientian-Wattay

Wientian, Laos

Szerokość geograficzna: 17-57N, Długość geograficzna: 102-34E, wysokość: 171 m

Aktualna obserwacja pogody

Raport powstał 30 minut temu, godzina 01:00 UTC
Wiatr 2 kt od południowy zachód
Temperatura 28°C
Wilgotność 84%
Ciśnienie 1007 hPa
Widzialność: 6000 m
Rozproszone chmury na wysokości 10000 ft

METAR: VLVT 260100Z 22002KT 6000 SCT100 28/25 Q1007 NOSIG

czas: 08:30 (01:30 UTC)

Prognoza

Raport powstał 2 godziny i 30 minut temu, godzina 23:00 UTC
Prognoza ważna od 26 godzina 00 UTC do 26 godzina 24 UTC
Wiatr 4 kt od zachód
Widzialność: 8000 m
Rozproszone chmury na wysokości 2000 ft
Rozproszone chmury na wysokości 20000 ft

TAF: VLVT 252300Z 2600/2624 27004KT 8000 SCT020 SCT200

Obserwacja i prognoza pogody dla ponad 4000 lotnisk (raport METAR i TAF).

Dostępne stacje oznaczono żółtymi i czerwonymi punktami na mapie.

Najedź kursorem aby zobaczyć nazwę stacji.

Kliknij aby zobaczyć obserwacje i prognozy pogody.

Aby zmienić mapę: kliknij na zielony przycisk z czarnym krzyżykiem, aby powiększyć; na zielony przycisk z myślnikiem, aby pomniejszyć; na zielone strzałki, aby przejść do map sąsiednich.


METAR-TAF: